createdAt,value
2018-02-21T00:00:34.030Z,93.61
2018-02-21T00:03:04.303Z,93.99
2018-02-21T00:04:18.615Z,94.08
2018-02-21T00:05:33.106Z,93.8
2018-02-21T00:06:47.122Z,93.42
2018-02-21T00:08:01.610Z,94.08
2018-02-21T00:09:15.825Z,94.08
2018-02-21T00:10:30.356Z,93.8
2018-02-21T00:11:44.855Z,94.08
2018-02-21T00:12:59.091Z,93.8
2018-02-21T00:14:13.559Z,93.51
2018-02-21T00:15:28.056Z,93.51
2018-02-21T00:16:42.603Z,93.99
2018-02-21T00:17:57.302Z,93.8
2018-02-21T00:19:10.815Z,93.8
2018-02-21T00:20:24.888Z,93.99
2018-02-21T00:21:39.108Z,93.8
2018-02-21T00:22:53.934Z,94.08
2018-02-21T00:24:08.151Z,93.99
2018-02-21T00:25:22.387Z,93.51
2018-02-21T00:26:35.926Z,93.99
2018-02-21T00:27:50.403Z,94.08
2018-02-21T00:29:04.968Z,93.61
2018-02-21T00:30:19.055Z,93.42
2018-02-21T00:31:33.274Z,93.51
2018-02-21T00:33:01.900Z,93.8
2018-02-21T00:34:17.290Z,93.8
2018-02-21T00:35:31.283Z,93.99
2018-02-21T00:36:45.776Z,93.61
2018-02-21T00:37:59.788Z,93.51
2018-02-21T00:39:14.646Z,93.8
2018-02-21T00:40:28.861Z,93.8
2018-02-21T00:41:43.581Z,93.61
2018-02-21T00:42:58.066Z,94.08
2018-02-21T00:44:12.562Z,93.89
2018-02-21T00:45:27.071Z,93.32
2018-02-21T00:46:41.306Z,93.61
2018-02-21T00:47:55.601Z,93.61
2018-02-21T00:49:09.838Z,93.8
2018-02-21T00:50:23.575Z,93.99
2018-02-21T00:51:37.768Z,93.89
2018-02-21T00:52:51.742Z,93.51
2018-02-21T00:54:06.277Z,93.99
2018-02-21T00:55:20.023Z,93.89
2018-02-21T00:56:34.244Z,93.04
2018-02-21T00:57:48.691Z,93.04
2018-02-21T00:59:03.155Z,93.42
2018-02-21T01:00:32.364Z,93.99
2018-02-21T01:01:46.875Z,93.8
2018-02-21T01:03:01.579Z,93.51
2018-02-21T01:04:15.810Z,93.99
2018-02-21T01:05:30.324Z,93.8
2018-02-21T01:06:44.660Z,93.89
2018-02-21T01:07:58.860Z,93.42
2018-02-21T01:09:12.613Z,94.08
2018-02-21T01:10:27.071Z,94.37
2018-02-21T01:11:41.341Z,93.8
2018-02-21T01:12:55.790Z,94.18
2018-02-21T01:14:09.750Z,93.8
2018-02-21T01:15:23.754Z,93.99
2018-02-21T01:16:37.719Z,94.65
2018-02-21T01:17:52.234Z,93.8
2018-02-21T01:19:06.204Z,94.18
2018-02-21T01:20:20.445Z,94.74
2018-02-21T01:21:34.447Z,94.65
2018-02-21T01:22:48.179Z,94.37
2018-02-21T01:24:02.720Z,94.65
2018-02-21T01:25:17.204Z,94.56
2018-02-21T01:26:31.947Z,94.65
2018-02-21T01:27:45.695Z,95.12
2018-02-21T01:28:59.690Z,95.21
2018-02-21T01:30:14.186Z,94.74
2018-02-21T01:31:27.968Z,94.65
2018-02-21T01:32:42.483Z,95.07
2018-02-21T01:33:56.479Z,94.27
2018-02-21T01:35:09.992Z,94.46
2018-02-21T01:36:24.274Z,94.89
2018-02-21T01:37:38.291Z,94.65
2018-02-21T01:38:52.531Z,94.65
2018-02-21T01:40:07.351Z,95.21
2018-02-21T01:41:21.312Z,95.12
2018-02-21T01:42:35.596Z,95.88
2018-02-21T01:44:04.499Z,95.78
2018-02-21T01:45:18.953Z,95.59
2018-02-21T01:46:32.716Z,95.69
2018-02-21T01:47:47.510Z,95.88
2018-02-21T01:49:02.029Z,95.78
2018-02-21T01:50:16.504Z,95.88
2018-02-21T01:51:30.505Z,96.16
2018-02-21T01:52:44.484Z,95.97
2018-02-21T01:53:58.532Z,96.26
2018-02-21T01:55:12.053Z,96.35
2018-02-21T01:56:25.800Z,96.73
2018-02-21T01:57:39.796Z,96.83
2018-02-21T01:58:53.289Z,96.73
2018-02-21T02:00:07.769Z,97.3
2018-02-21T02:01:22.008Z,97.2
2018-02-21T02:02:36.049Z,97.39
2018-02-21T02:03:50.026Z,97.2
2018-02-21T02:05:04.515Z,97.3
2018-02-21T02:06:19.262Z,97.2
2018-02-21T02:07:33.256Z,97.35
2018-02-21T02:08:47.255Z,97.49
2018-02-21T02:10:01.486Z,97.39
2018-02-21T02:11:15.775Z,98.15
2018-02-21T02:12:29.922Z,98.15
2018-02-21T02:13:43.710Z,98.82
2018-02-21T02:14:57.474Z,99.48
2018-02-21T02:16:11.717Z,99.76
2018-02-21T02:17:25.726Z,99.57
2018-02-21T02:18:40.496Z,99.57
2018-02-21T02:19:54.244Z,99.48
2018-02-21T02:21:08.519Z,99.57
2018-02-21T02:22:22.755Z,99.76
2018-02-21T02:23:37.467Z,99.99
2018-02-21T02:24:51.508Z,99.99
2018-02-21T02:26:05.503Z,99.99
2018-02-21T02:27:19.761Z,99.95
2018-02-21T02:28:34.024Z,99.99
2018-02-21T02:29:48.017Z,99.99
2018-02-21T02:31:02.364Z,99.99
2018-02-21T02:32:17.110Z,99.99
2018-02-21T02:33:30.593Z,99.99
2018-02-21T02:34:44.843Z,99.99
2018-02-21T02:35:58.575Z,99.99
2018-02-21T02:37:13.112Z,99.99
2018-02-21T02:38:27.352Z,99.99
2018-02-21T02:39:41.557Z,99.99
2018-02-21T02:40:55.787Z,99.99
2018-02-21T02:42:09.792Z,99.99
2018-02-21T02:43:24.262Z,99.99
2018-02-21T02:44:38.488Z,99.99
2018-02-21T02:45:53.094Z,99.99
2018-02-21T02:47:22.244Z,99.99
2018-02-21T02:48:37.400Z,99.99
2018-02-21T02:49:51.942Z,99.99
2018-02-21T02:51:05.965Z,99.99
2018-02-21T02:52:20.197Z,99.99
2018-02-21T02:53:34.187Z,99.99
2018-02-21T02:54:48.748Z,99.99
2018-02-21T02:56:02.983Z,99.99
2018-02-21T02:57:17.480Z,99.99
2018-02-21T02:58:31.453Z,99.99
2018-02-21T02:59:45.502Z,99.99
2018-02-21T03:00:59.779Z,99.99
2018-02-21T03:02:14.266Z,99.99
2018-02-21T03:03:28.272Z,99.99
2018-02-21T03:04:42.489Z,99.99
2018-02-21T03:05:56.276Z,99.99
2018-02-21T03:07:10.800Z,99.99
2018-02-21T03:08:24.548Z,99.99
2018-02-21T03:09:38.775Z,99.99
2018-02-21T03:10:53.242Z,99.99
2018-02-21T03:12:07.961Z,99.99
2018-02-21T03:13:22.728Z,99.99
2018-02-21T03:14:37.183Z,99.99
2018-02-21T03:15:51.165Z,99.99
2018-02-21T03:17:05.195Z,99.99
2018-02-21T03:18:19.120Z,99.99
2018-02-21T03:19:32.931Z,99.99
2018-02-21T03:20:46.870Z,99.99
2018-02-21T03:22:01.073Z,99.99
2018-02-21T03:23:15.544Z,99.99
2018-02-21T03:24:30.045Z,99.99
2018-02-21T03:25:44.131Z,99.99
2018-02-21T03:26:57.862Z,99.99
2018-02-21T03:28:11.852Z,99.99
2018-02-21T03:29:26.592Z,99.99
2018-02-21T03:30:40.810Z,99.99
2018-02-21T03:31:54.886Z,99.99
2018-02-21T03:33:09.128Z,99.99
2018-02-21T03:34:23.352Z,99.99
2018-02-21T03:35:37.803Z,99.99
2018-02-21T03:36:51.814Z,99.99
2018-02-21T03:38:06.343Z,99.99
2018-02-21T03:39:20.591Z,99.99
2018-02-21T03:40:34.354Z,99.99
2018-02-21T03:41:49.058Z,99.99
2018-02-21T03:43:03.057Z,99.99
2018-02-21T03:44:17.102Z,99.99
2018-02-21T03:45:30.626Z,99.99
2018-02-21T03:46:45.109Z,99.99
2018-02-21T03:47:59.329Z,99.99
2018-02-21T03:49:12.810Z,99.99
2018-02-21T03:50:27.619Z,99.99
2018-02-21T03:51:41.236Z,99.99
2018-02-21T03:52:54.738Z,99.99
2018-02-21T03:54:08.959Z,99.99
2018-02-21T03:55:23.164Z,99.99
2018-02-21T03:56:37.454Z,99.99
2018-02-21T03:57:51.447Z,99.99
2018-02-21T03:59:04.933Z,99.99
2018-02-21T04:00:34.088Z,99.99
2018-02-21T04:01:47.112Z,99.99
2018-02-21T04:03:01.262Z,99.99
2018-02-21T04:04:15.230Z,99.99
2018-02-21T04:05:29.264Z,99.99
2018-02-21T04:06:43.958Z,99.99
2018-02-21T04:07:57.182Z,99.99
2018-02-21T04:09:11.726Z,99.99
2018-02-21T04:10:25.701Z,99.99
2018-02-21T04:11:39.915Z,99.99
2018-02-21T04:12:54.379Z,99.99
2018-02-21T04:14:08.344Z,99.99
2018-02-21T04:15:22.884Z,99.99
2018-02-21T04:16:36.639Z,99.99
2018-02-21T04:17:50.659Z,99.99
2018-02-21T04:19:04.896Z,99.99
2018-02-21T04:20:18.950Z,99.99
2018-02-21T04:21:33.245Z,99.99
2018-02-21T04:22:47.035Z,99.99
2018-02-21T04:24:01.911Z,99.99
2018-02-21T04:25:16.415Z,99.99
2018-02-21T04:26:30.910Z,99.99
2018-02-21T04:27:45.720Z,99.99
2018-02-21T04:28:59.500Z,99.99
2018-02-21T04:30:14.216Z,99.99
2018-02-21T04:31:27.976Z,99.99
2018-02-21T04:32:42.260Z,99.99
2018-02-21T04:33:56.484Z,99.99
2018-02-21T04:35:10.786Z,99.99
2018-02-21T04:36:25.549Z,99.99
2018-02-21T04:37:40.292Z,99.99
2018-02-21T04:38:53.654Z,99.99
2018-02-21T04:40:08.474Z,99.99
2018-02-21T04:41:22.230Z,99.99
2018-02-21T04:42:36.241Z,99.99
2018-02-21T04:43:49.983Z,99.99
2018-02-21T04:45:04.489Z,99.99
2018-02-21T04:46:19.084Z,99.99
2018-02-21T04:47:33.090Z,99.99
2018-02-21T04:48:46.858Z,99.99
2018-02-21T04:50:00.852Z,99.99
2018-02-21T04:51:14.899Z,99.99
2018-02-21T04:52:29.896Z,99.99
2018-02-21T04:53:44.146Z,99.99
2018-02-21T04:54:58.879Z,99.99
2018-02-21T04:56:13.627Z,99.99
2018-02-21T04:57:27.777Z,99.99
2018-02-21T04:58:41.855Z,99.99
2018-02-21T04:59:55.875Z,99.99
2018-02-21T05:01:10.113Z,99.99
2018-02-21T05:02:24.085Z,99.99
2018-02-21T05:03:38.100Z,99.99
2018-02-21T05:04:52.460Z,99.99
2018-02-21T05:06:06.710Z,99.99
2018-02-21T05:07:21.192Z,99.99
2018-02-21T05:08:35.442Z,99.99
2018-02-21T05:09:49.934Z,99.99
2018-02-21T05:11:03.746Z,99.99
2018-02-21T05:12:17.961Z,99.99
2018-02-21T05:13:32.176Z,99.99
2018-02-21T05:14:46.322Z,99.99
2018-02-21T05:16:00.874Z,99.99
2018-02-21T05:17:15.220Z,99.99
2018-02-21T05:18:29.690Z,99.99
2018-02-21T05:19:43.976Z,99.99
2018-02-21T05:20:58.729Z,99.99
2018-02-21T05:22:12.973Z,99.99
2018-02-21T05:23:27.765Z,99.99
2018-02-21T05:24:42.003Z,99.99
2018-02-21T05:25:55.281Z,99.99
2018-02-21T05:27:09.035Z,99.99
2018-02-21T05:28:22.751Z,99.99
2018-02-21T05:29:37.314Z,99.99
2018-02-21T05:30:51.905Z,99.99
2018-02-21T05:32:05.624Z,99.99
2018-02-21T05:33:19.623Z,99.99
2018-02-21T05:34:33.365Z,99.99
2018-02-21T05:35:47.655Z,99.99
2018-02-21T05:37:01.904Z,99.99
2018-02-21T05:38:15.901Z,99.99
2018-02-21T05:39:29.468Z,99.99
2018-02-21T05:40:43.226Z,99.99
2018-02-21T05:41:57.547Z,99.99
2018-02-21T05:43:11.778Z,99.99
2018-02-21T05:44:25.802Z,99.99
2018-02-21T05:45:39.823Z,99.99
2018-02-21T05:46:54.087Z,99.99
2018-02-21T05:48:08.412Z,99.99
2018-02-21T05:49:22.893Z,99.99
2018-02-21T05:50:37.108Z,99.99
2018-02-21T05:51:51.107Z,99.99
2018-02-21T05:53:05.370Z,99.99
2018-02-21T05:54:19.728Z,99.99
2018-02-21T05:55:33.965Z,99.99
2018-02-21T05:56:48.427Z,99.99
2018-02-21T05:58:02.908Z,99.99
2018-02-21T05:59:17.148Z,99.99
2018-02-21T06:00:31.245Z,99.99
2018-02-21T06:01:45.036Z,99.99
2018-02-21T06:03:13.810Z,99.99
2018-02-21T06:04:27.581Z,99.99
2018-02-21T06:05:41.390Z,99.99
2018-02-21T06:06:55.368Z,99.99
2018-02-21T06:08:09.597Z,99.99
2018-02-21T06:09:23.627Z,99.99
2018-02-21T06:10:37.619Z,99.99
2018-02-21T06:11:52.662Z,99.99
2018-02-21T06:13:06.710Z,99.99
2018-02-21T06:14:20.713Z,99.99
2018-02-21T06:15:34.203Z,99.99
2018-02-21T06:17:02.844Z,99.99
2018-02-21T06:18:17.416Z,99.99
2018-02-21T06:19:31.974Z,99.99
2018-02-21T06:20:46.470Z,99.99
2018-02-21T06:22:00.747Z,99.99
2018-02-21T06:23:14.757Z,99.99
2018-02-21T06:24:28.615Z,99.99
2018-02-21T06:25:42.956Z,99.99
2018-02-21T06:26:57.264Z,99.99
2018-02-21T06:28:11.563Z,99.99
2018-02-21T06:29:25.596Z,99.99
2018-02-21T06:30:39.923Z,99.99
2018-02-21T06:31:53.954Z,99.99
2018-02-21T06:33:08.213Z,99.99
2018-02-21T06:34:22.435Z,99.99
2018-02-21T06:35:36.762Z,99.99
2018-02-21T06:36:51.540Z,99.99
2018-02-21T06:38:05.776Z,99.99
2018-02-21T06:39:19.544Z,99.99
2018-02-21T06:40:34.038Z,99.99
2018-02-21T06:41:47.551Z,99.99
2018-02-21T06:43:02.141Z,99.99
2018-02-21T06:44:15.951Z,99.99
2018-02-21T06:45:29.966Z,99.99
2018-02-21T06:46:44.216Z,99.99
2018-02-21T06:47:58.224Z,99.99
2018-02-21T06:49:12.504Z,99.99
2018-02-21T06:50:26.750Z,99.99
2018-02-21T06:51:41.015Z,99.99
2018-02-21T06:52:55.032Z,99.99
2018-02-21T06:54:08.831Z,99.99
2018-02-21T06:55:22.828Z,99.99
2018-02-21T06:56:36.883Z,99.99
2018-02-21T06:57:50.948Z,99.99
2018-02-21T06:59:05.181Z,99.99
2018-02-21T07:00:19.212Z,99.99
2018-02-21T07:01:33.459Z,99.99
2018-02-21T07:02:47.215Z,99.99
2018-02-21T07:04:01.715Z,99.99
2018-02-21T07:05:16.485Z,99.99
2018-02-21T07:06:30.722Z,99.99
2018-02-21T07:07:44.489Z,99.99
2018-02-21T07:08:59.100Z,99.99
2018-02-21T07:10:13.633Z,99.99
2018-02-21T07:11:28.108Z,99.99
2018-02-21T07:12:42.135Z,99.99
2018-02-21T07:13:56.123Z,99.99
2018-02-21T07:15:10.186Z,99.99
2018-02-21T07:16:23.712Z,99.99
2018-02-21T07:17:37.750Z,99.99
2018-02-21T07:18:51.566Z,99.99
2018-02-21T07:20:05.066Z,99.99
2018-02-21T07:21:18.833Z,99.99
2018-02-21T07:22:32.352Z,99.99
2018-02-21T07:23:46.095Z,99.99
2018-02-21T07:25:00.599Z,99.99
2018-02-21T07:26:14.105Z,99.99
2018-02-21T07:27:28.098Z,99.99
2018-02-21T07:28:42.417Z,99.99
2018-02-21T07:29:56.243Z,99.99
2018-02-21T07:31:10.490Z,99.99
2018-02-21T07:32:24.975Z,99.99
2018-02-21T07:33:39.745Z,99.99
2018-02-21T07:34:53.756Z,99.99
2018-02-21T07:36:07.802Z,99.99
2018-02-21T07:37:21.816Z,99.99
2018-02-21T07:38:35.555Z,99.99
2018-02-21T07:39:49.823Z,99.99
2018-02-21T07:41:18.973Z,99.99
2018-02-21T07:42:33.617Z,99.99
2018-02-21T07:43:47.613Z,99.99
2018-02-21T07:45:01.144Z,99.99
2018-02-21T07:46:15.753Z,99.99
2018-02-21T07:47:30.262Z,99.99
2018-02-21T07:48:44.518Z,99.99
2018-02-21T07:49:58.523Z,99.99
2018-02-21T07:51:12.908Z,99.99
2018-02-21T07:52:27.079Z,99.99
2018-02-21T07:53:41.556Z,99.99
2018-02-21T07:54:56.079Z,99.99
2018-02-21T07:56:09.869Z,99.99
2018-02-21T07:57:23.936Z,99.99
2018-02-21T07:58:53.325Z,99.99
2018-02-21T08:00:07.340Z,99.99
2018-02-21T08:01:21.453Z,99.99
2018-02-21T08:02:35.053Z,99.99
2018-02-21T08:03:49.593Z,99.99
2018-02-21T08:05:04.237Z,99.99
2018-02-21T08:06:18.555Z,99.99
2018-02-21T08:07:32.597Z,99.99
2018-02-21T08:08:45.895Z,99.99
2018-02-21T08:10:00.682Z,99.99
2018-02-21T08:11:15.202Z,99.99
2018-02-21T08:12:29.231Z,99.99
2018-02-21T08:13:43.709Z,99.99
2018-02-21T08:14:57.865Z,99.99
2018-02-21T08:16:11.626Z,99.99
2018-02-21T08:17:25.889Z,99.99
2018-02-21T08:18:40.157Z,99.99
2018-02-21T08:19:54.182Z,99.99
2018-02-21T08:21:07.963Z,99.99
2018-02-21T08:22:22.227Z,99.99
2018-02-21T08:23:36.249Z,99.99
2018-02-21T08:24:50.503Z,99.99
2018-02-21T08:26:04.776Z,99.99
2018-02-21T08:27:19.280Z,99.99
2018-02-21T08:28:33.057Z,99.99
2018-02-21T08:29:46.837Z,99.99
2018-02-21T08:31:00.861Z,99.99
2018-02-21T08:32:14.916Z,99.57
2018-02-21T08:33:28.900Z,99.76
2018-02-21T08:34:43.246Z,99.57
2018-02-21T08:35:57.520Z,99.48
2018-02-21T08:37:12.229Z,98.63
2018-02-21T08:38:26.234Z,99.01
2018-02-21T08:39:40.500Z,99.38
2018-02-21T08:40:54.500Z,99.38
2018-02-21T08:42:08.263Z,99.19
2018-02-21T08:43:22.295Z,99.48
2018-02-21T08:44:36.567Z,99.29
2018-02-21T08:45:51.080Z,99.48
2018-02-21T08:47:05.069Z,99.38
2018-02-21T08:48:19.392Z,99.57
2018-02-21T08:49:33.906Z,99.57
2018-02-21T08:50:48.432Z,99.38
2018-02-21T08:52:02.694Z,99.01
2018-02-21T08:53:16.752Z,97.96
2018-02-21T08:54:30.983Z,98.63
2018-02-21T08:55:45.238Z,98.63
2018-02-21T08:56:59.018Z,98.34
2018-02-21T08:58:13.456Z,97.11
2018-02-21T08:59:27.459Z,96.45
2018-02-21T09:00:41.443Z,96.45
2018-02-21T09:01:55.708Z,96.54
2018-02-21T09:03:09.726Z,96.54
2018-02-21T09:04:23.992Z,96.35
2018-02-21T09:05:38.205Z,95.97
2018-02-21T09:06:52.216Z,95.4
2018-02-21T09:08:05.957Z,96.16
2018-02-21T09:09:20.175Z,95.78
2018-02-21T09:10:34.173Z,96.16
2018-02-21T09:11:48.900Z,95.88
2018-02-21T09:13:03.159Z,95.12
2018-02-21T09:14:17.717Z,94.18
2018-02-21T09:15:32.199Z,93.61
2018-02-21T09:16:46.540Z,93.61
2018-02-21T09:18:00.502Z,93.99
2018-02-21T09:19:14.033Z,94.18
2018-02-21T09:20:28.049Z,94.46
2018-02-21T09:21:43.003Z,94.74
2018-02-21T09:22:56.818Z,94.18
2018-02-21T09:24:10.567Z,93.51
2018-02-21T09:25:24.589Z,93.42
2018-02-21T09:26:38.892Z,93.04
2018-02-21T09:27:53.429Z,93.51
2018-02-21T09:29:07.449Z,93.51
2018-02-21T09:30:22.547Z,93.51
2018-02-21T09:31:36.800Z,93.23
2018-02-21T09:32:50.826Z,93.04
2018-02-21T09:34:05.105Z,93.04
2018-02-21T09:35:19.442Z,93.04
2018-02-21T09:36:33.915Z,92.9
2018-02-21T09:37:48.652Z,92.43
2018-02-21T09:39:02.671Z,92.29
2018-02-21T09:40:16.439Z,91.57
2018-02-21T09:41:30.193Z,91.48
2018-02-21T09:42:44.431Z,90.91
2018-02-21T09:43:58.468Z,90.63
2018-02-21T09:45:12.243Z,89.3
2018-02-21T09:46:26.720Z,89.3
2018-02-21T09:47:41.201Z,89.01
2018-02-21T09:48:55.706Z,88.64
2018-02-21T09:50:09.470Z,88.07
2018-02-21T09:51:23.245Z,87.4
2018-02-21T09:52:37.736Z,87.4
2018-02-21T09:53:52.493Z,87.4
2018-02-21T09:55:06.849Z,87.4
2018-02-21T09:56:21.356Z,87.4
2018-02-21T09:57:35.355Z,87.59
2018-02-21T09:58:49.614Z,87.02
2018-02-21T10:00:03.859Z,86.36
2018-02-21T10:01:18.379Z,86.55
2018-02-21T10:02:32.677Z,87.4
2018-02-21T10:03:47.182Z,87.69
2018-02-21T10:05:01.196Z,87.69
2018-02-21T10:06:15.706Z,87.12
2018-02-21T10:07:29.718Z,85.7
2018-02-21T10:08:43.495Z,85.23
2018-02-21T10:09:57.727Z,85.13
2018-02-21T10:11:12.242Z,86.18
2018-02-21T10:12:27.003Z,86.83
2018-02-21T10:13:41.505Z,86.83
2018-02-21T10:14:55.976Z,86.5
2018-02-21T10:16:09.488Z,86.36
2018-02-21T10:17:23.946Z,85.99
2018-02-21T10:18:37.956Z,86.12
2018-02-21T10:19:52.204Z,85.84
2018-02-21T10:21:05.984Z,86.03
2018-02-21T10:22:19.944Z,86.12
2018-02-21T10:23:33.964Z,85.65
2018-02-21T10:24:47.977Z,85.74
2018-02-21T10:26:02.734Z,85.84
2018-02-21T10:27:16.755Z,84.99
2018-02-21T10:28:30.868Z,84.23
2018-02-21T10:29:45.173Z,83.75
2018-02-21T10:30:59.183Z,83.56
2018-02-21T10:32:13.897Z,84.23
2018-02-21T10:33:27.912Z,84.32
2018-02-21T10:34:42.141Z,84.42
2018-02-21T10:35:56.387Z,84.89
2018-02-21T10:37:09.928Z,85.08
2018-02-21T10:38:23.424Z,83.94
2018-02-21T10:39:37.479Z,83
2018-02-21T10:40:51.731Z,83.37
2018-02-21T10:42:06.265Z,82.52
2018-02-21T10:43:20.283Z,82.62
2018-02-21T10:44:34.330Z,82.9
2018-02-21T10:45:48.062Z,83.37
2018-02-21T10:47:02.116Z,82.9
2018-02-21T10:48:16.151Z,83.56
2018-02-21T10:49:29.944Z,83.28
2018-02-21T10:50:44.229Z,83.18
2018-02-21T10:51:58.515Z,82.9
2018-02-21T10:53:12.537Z,82.33
2018-02-21T10:54:26.544Z,82.43
2018-02-21T10:55:40.346Z,82.14
2018-02-21T10:56:54.124Z,82.05
2018-02-21T10:58:08.121Z,82.05
2018-02-21T10:59:22.887Z,82.62
2018-02-21T11:00:37.163Z,82.14
2018-02-21T11:01:51.546Z,82.09
2018-02-21T11:03:05.093Z,81.86
2018-02-21T11:04:18.886Z,82.33
2018-02-21T11:05:32.872Z,82.05
2018-02-21T11:06:47.397Z,81.95
2018-02-21T11:08:01.420Z,81.05
2018-02-21T11:09:15.916Z,81.05
2018-02-21T11:10:29.954Z,80.86
2018-02-21T11:11:44.438Z,80.95
2018-02-21T11:12:57.997Z,80.76
2018-02-21T11:14:12.258Z,81.24
2018-02-21T11:15:26.074Z,81.05
2018-02-21T11:16:40.092Z,81.01
2018-02-21T11:17:54.404Z,81.01
2018-02-21T11:19:08.408Z,80.86
2018-02-21T11:20:22.934Z,81.67
2018-02-21T11:21:36.940Z,81.29
2018-02-21T11:22:51.419Z,80.38
2018-02-21T11:24:05.450Z,80.29
2018-02-21T11:25:19.478Z,79.91
2018-02-21T11:26:33.223Z,80.29
2018-02-21T11:27:47.477Z,79.72
2018-02-21T11:29:01.714Z,80.57
2018-02-21T11:30:16.013Z,80.67
2018-02-21T11:31:30.546Z,80
2018-02-21T11:32:44.608Z,80.57
2018-02-21T11:33:59.104Z,79.72
2018-02-21T11:35:13.455Z,79.53
2018-02-21T11:36:27.682Z,79.15
2018-02-21T11:37:41.943Z,78.96
2018-02-21T11:38:55.922Z,79.15
2018-02-21T11:40:10.234Z,78.67
2018-02-21T11:41:24.463Z,78.67
2018-02-21T11:42:38.456Z,78.3
2018-02-21T11:43:52.726Z,78.58
2018-02-21T11:45:06.032Z,78.49
2018-02-21T11:46:19.828Z,78.11
2018-02-21T11:47:33.363Z,77.92
2018-02-21T11:48:47.371Z,77.64
2018-02-21T11:50:01.644Z,77.83
2018-02-21T11:51:16.166Z,76.68
2018-02-21T11:52:29.949Z,76.4
2018-02-21T11:53:43.980Z,76.68
2018-02-21T11:54:58.495Z,76.68
2018-02-21T11:56:12.516Z,76.59
2018-02-21T11:57:26.770Z,76.5
2018-02-21T11:58:40.334Z,75.64
2018-02-21T11:59:54.597Z,75.64
2018-02-21T12:01:08.640Z,76.03
2018-02-21T12:02:22.212Z,76.59
2018-02-21T12:03:36.228Z,76.5
2018-02-21T12:04:50.828Z,76.21
2018-02-21T12:06:05.412Z,75.55
2018-02-21T12:07:19.439Z,76.12
2018-02-21T12:08:34.062Z,76.31
2018-02-21T12:09:48.349Z,76.68
2018-02-21T12:11:02.374Z,76.87
2018-02-21T12:12:16.902Z,77.06
2018-02-21T12:13:31.201Z,76.87
2018-02-21T12:14:45.688Z,76.31
2018-02-21T12:15:59.755Z,76.31
2018-02-21T12:17:13.333Z,76.21
2018-02-21T12:18:27.612Z,75.84
2018-02-21T12:19:41.423Z,75.55
2018-02-21T12:20:54.941Z,76.03
2018-02-21T12:22:09.210Z,76.25
2018-02-21T12:23:23.228Z,76.25
2018-02-21T12:24:37.742Z,75.11
2018-02-21T12:25:51.787Z,74.35
2018-02-21T12:27:05.569Z,74.83
2018-02-21T12:28:19.340Z,74.83
2018-02-21T12:29:33.002Z,75.96
2018-02-21T12:30:47.233Z,75.31
2018-02-21T12:32:01.250Z,75.11
2018-02-21T12:33:15.040Z,75.02
2018-02-21T12:34:29.301Z,74.92
2018-02-21T12:35:43.546Z,74.07
2018-02-21T12:36:57.375Z,74.45
2018-02-21T12:38:11.411Z,74.83
2018-02-21T12:39:25.939Z,74.83
2018-02-21T12:40:40.066Z,75.11
2018-02-21T12:41:54.726Z,74.83
2018-02-21T12:43:09.036Z,74.92
2018-02-21T12:44:23.547Z,75.02
2018-02-21T12:45:37.587Z,75.11
2018-02-21T12:46:51.703Z,74.64
2018-02-21T12:48:06.204Z,74.54
2018-02-21T12:49:20.220Z,74.35
2018-02-21T12:50:34.744Z,74.35
2018-02-21T12:51:49.263Z,73.97
2018-02-21T12:53:03.788Z,73.88
2018-02-21T12:54:18.108Z,73.97
2018-02-21T12:55:32.570Z,73.69
2018-02-21T12:56:46.836Z,73.97
2018-02-21T12:58:00.612Z,73.97
2018-02-21T12:59:15.130Z,73.41
2018-02-21T13:00:29.458Z,73.5
2018-02-21T13:01:43.734Z,73.5
2018-02-21T13:02:58.502Z,73.31
2018-02-21T13:04:12.554Z,73.41
2018-02-21T13:05:26.644Z,73.5
2018-02-21T13:06:40.890Z,73.31
2018-02-21T13:07:54.668Z,73.03
2018-02-21T13:09:09.223Z,73.31
2018-02-21T13:10:22.996Z,74.16
2018-02-21T13:11:37.266Z,73.6
2018-02-21T13:12:51.552Z,73.5
2018-02-21T13:14:05.181Z,72.84
2018-02-21T13:15:19.330Z,73.03
2018-02-21T13:16:33.681Z,73.22
2018-02-21T13:17:47.464Z,73.12
2018-02-21T13:19:01.746Z,73.5
2018-02-21T13:20:16.026Z,73.03
2018-02-21T13:21:30.518Z,73.03
2018-02-21T13:22:44.576Z,73.5
2018-02-21T13:23:58.837Z,73.31
2018-02-21T13:25:12.905Z,73.5
2018-02-21T13:26:27.424Z,72.74
2018-02-21T13:27:41.445Z,72.45
2018-02-21T13:28:55.953Z,72.64
2018-02-21T13:30:10.020Z,72.68
2018-02-21T13:31:24.376Z,72.59
2018-02-21T13:32:39.004Z,71.51
2018-02-21T13:33:53.040Z,71.7
2018-02-21T13:35:06.832Z,71.7
2018-02-21T13:36:21.337Z,72.78
2018-02-21T13:37:35.612Z,71.83
2018-02-21T13:38:49.751Z,71.36
2018-02-21T13:40:03.791Z,71.55
2018-02-21T13:41:18.308Z,71.45
2018-02-21T13:42:32.843Z,71.45
2018-02-21T13:43:47.108Z,71.55
2018-02-21T13:45:00.894Z,71.36
2018-02-21T13:46:15.158Z,70.98
2018-02-21T13:47:28.967Z,70.98
2018-02-21T13:48:43.367Z,70.98
2018-02-21T13:49:57.633Z,70.78
2018-02-21T13:51:12.144Z,71.17
2018-02-21T13:52:26.450Z,70.94
2018-02-21T13:53:40.992Z,71.26
2018-02-21T13:54:55.480Z,71.03
2018-02-21T13:56:09.748Z,70.84
2018-02-21T13:57:23.773Z,70.4
2018-02-21T13:58:37.829Z,70.94
2018-02-21T13:59:51.578Z,70.65
2018-02-21T14:01:05.371Z,71.03
2018-02-21T14:02:19.601Z,71.13
2018-02-21T14:03:34.116Z,70.78
2018-02-21T14:04:47.866Z,70.98
2018-02-21T14:06:02.380Z,70.4
2018-02-21T14:07:16.418Z,70.31
2018-02-21T14:08:30.684Z,70.03
2018-02-21T14:09:44.920Z,70.21
2018-02-21T14:10:58.929Z,70.12
2018-02-21T14:12:12.939Z,70.03
2018-02-21T14:13:26.931Z,70.31
2018-02-21T14:14:41.210Z,69.74
2018-02-21T14:15:54.969Z,69.93
2018-02-21T14:17:09.025Z,69.36
2018-02-21T14:18:23.571Z,69.46
2018-02-21T14:19:37.615Z,69.46
2018-02-21T14:20:51.641Z,69.46
2018-02-21T14:22:06.242Z,69.27
2018-02-21T14:23:35.150Z,68.6
2018-02-21T14:24:49.653Z,69.08
2018-02-21T14:26:04.178Z,68.98
2018-02-21T14:27:18.569Z,68.6
2018-02-21T14:28:32.599Z,68.98
2018-02-21T14:29:46.894Z,69.46
2018-02-21T14:31:01.416Z,69.08
2018-02-21T14:32:15.413Z,68.79
2018-02-21T14:33:30.171Z,68.79
2018-02-21T14:34:44.509Z,68.7
2018-02-21T14:35:58.775Z,68.79
2018-02-21T14:37:12.828Z,68.89
2018-02-21T14:38:26.864Z,69.36
2018-02-21T14:39:40.877Z,69.55
2018-02-21T14:42:25.085Z,70.12
2018-02-21T14:43:39.142Z,70.31
2018-02-21T14:44:53.363Z,70.12
2018-02-21T14:46:07.631Z,69.93
2018-02-21T14:47:21.390Z,70.21
2018-02-21T14:48:35.408Z,70.4
2018-02-21T14:49:49.185Z,69.65
2018-02-21T14:51:02.980Z,69.65
2018-02-21T14:52:17.243Z,69.36
2018-02-21T14:53:31.744Z,69.17
2018-02-21T14:54:45.866Z,69.36
2018-02-21T14:56:00.397Z,69.55
2018-02-21T14:57:14.919Z,69.17
2018-02-21T14:58:29.213Z,69.36
2018-02-21T14:59:43.481Z,69.27
2018-02-21T15:00:58.020Z,69.46
2018-02-21T15:02:11.798Z,70.21
2018-02-21T15:03:25.826Z,70.5
2018-02-21T15:04:39.628Z,70.69
2018-02-21T15:05:53.152Z,70.69
2018-02-21T15:07:07.655Z,70.69
2018-02-21T15:08:21.717Z,70.59
2018-02-21T15:09:35.500Z,70.69
2018-02-21T15:10:49.753Z,70.31
2018-02-21T15:12:03.770Z,69.84
2018-02-21T15:13:18.022Z,69.27
2018-02-21T15:14:32.306Z,68.89
2018-02-21T15:15:46.569Z,68.98
2018-02-21T15:17:00.636Z,68.23
2018-02-21T15:18:14.921Z,67.94
2018-02-21T15:19:28.920Z,67.94
2018-02-21T15:20:43.490Z,68.04
2018-02-21T15:21:58.240Z,67.65
2018-02-21T15:23:11.595Z,68.51
2018-02-21T15:24:25.637Z,68.32
2018-02-21T15:25:39.474Z,68.23
2018-02-21T15:26:54.028Z,68.13
2018-02-21T15:28:08.440Z,68.04
2018-02-21T15:29:22.738Z,68.13
2018-02-21T15:30:36.785Z,68.13
2018-02-21T15:31:51.559Z,68.79
2018-02-21T15:33:06.173Z,68.79
2018-02-21T15:34:20.451Z,68.6
2018-02-21T15:35:34.721Z,68.7
2018-02-21T15:36:49.026Z,68.79
2018-02-21T15:38:03.527Z,68.98
2018-02-21T15:39:17.555Z,68.79
2018-02-21T15:40:31.826Z,69.08
2018-02-21T15:41:46.074Z,69.17
2018-02-21T15:43:00.060Z,69.36
2018-02-21T15:44:14.331Z,69.84
2018-02-21T15:45:28.597Z,69.84
2018-02-21T15:46:42.863Z,69.65
2018-02-21T15:47:56.861Z,69.65
2018-02-21T15:49:10.873Z,69.36
2018-02-21T15:50:25.129Z,69.84
2018-02-21T15:51:39.197Z,69.65
2018-02-21T15:52:53.707Z,69.52
2018-02-21T15:54:08.221Z,70.18
2018-02-21T15:55:22.305Z,69.61
2018-02-21T15:56:36.106Z,69.99
2018-02-21T15:57:50.363Z,69.99
2018-02-21T15:59:04.397Z,70.09
2018-02-21T16:00:18.772Z,69.9
2018-02-21T16:01:32.675Z,70.28
2018-02-21T16:02:47.218Z,70.47